SAZR/RSA METAR and TAF weather

Enter ICAO airport designator
Station Type Date Time Source
SAZR METAR 2022/06/29 22:00 UTC NOAA

SAZR 292200Z 20005KT 9999 -RA NSC 15/03 Q1013


Station Type Date Time Source
SAZR Decoded METAR 2022/06/29 22:00 UTC NOAA

Santa Rosa Aerodrome, Argentina (SAZR) 36-34S 064-16W 191M
Jun 29, 2022 - 06:00 PM EDT / 2022.06.29 2200 UTC
Wind: from the SSW (200 degrees) at 6 MPH (5 KT):0
Visibility: greater than 7 mile(s):0
Weather: light rain
Temperature: 59 F (15 C)
Dew Point: 37 F (3 C)
Relative Humidity: 44%
Pressure (altimeter): 29.91 in. Hg (1013 hPa)
ob: SAZR 292200Z 20005KT 9999 -RA NSC 15/03 Q1013
cycle: 22

Station Type Date Time Source
SAZR TAF 2022/06/16 03:30 UTC NOAA

TAF
AMD SAZR 160300Z 1603/1706 16006KT 9999 BKN010 TX17/1618Z TN03/1609Z
BECMG 1604/1606 20005KT 5000 BR BKN005 PROB30
TEMPO 1606/1612 0800 FG BKN005
BECMG 1613/1614 24006KT CAVOK

Example: see airport list